Time;durP1;ratioP1;P1;durP2;ratioP2;P2;SDS_P1;SDS_P2;PMS_P1;PMS_P2;Temp;Humidity;BMP_temperature;BMP_pressure;BME280_temperature;BME280_humidity;BME280_pressure;Samples;Min_cycle;Max_cycle;Signal;HPM_P1;HPM_P2
2022/07/19 00:00:10;;;;;;;;;;;;;;;28.42;42.14;98409.38;5122407;28;19942;-59
2022/07/19 00:02:36;;;;;;;;;;;;;;;28.29;42.64;98407.19;5122238;28;20008;-60
2022/07/19 00:05:03;;;;;;;;;;;;;;;28.25;42.78;98415.41;5119038;28;19924;-59
2022/07/19 00:07:29;;;;;;;;;;;;;;;28.30;42.77;98411.53;5118101;28;19970;-62
2022/07/19 00:09:56;;;;;;;;;;;;;;;28.29;42.75;98405.25;5121720;28;20077;-60
2022/07/19 00:12:22;;;;;;;;;;;;;;;28.28;42.70;98414.66;5122493;28;19942;-60
2022/07/19 00:14:50;;;;;;;;;;;;;;;28.24;42.63;98411.06;5120170;28;19928;-59
2022/07/19 00:17:16;;;;;;;;;;;;;;;28.21;42.65;98409.03;5118687;28;19924;-60
2022/07/19 00:19:43;;;;;;;;;;;;;;;28.25;42.94;98409.91;5119550;28;19932;-60
2022/07/19 00:22:09;;;;;;;;;;;;;;;28.23;42.68;98406.72;5122077;28;19924;-60
2022/07/19 00:24:35;;;;;;;;;;;;;;;28.22;42.71;98401.59;5122150;28;19924;-59
2022/07/19 00:27:02;;;;;;;;;;;;;;;28.16;43.08;98405.81;5109927;28;20420;-60
2022/07/19 00:29:28;;;;;;;;;;;;;;;28.23;43.06;98406.72;5109963;28;19924;-60
2022/07/19 00:31:56;;;;;;;;;;;;;;;28.19;43.13;98399.59;5110013;28;19924;-59
2022/07/19 00:34:22;;;;;;;;;;;;;;;28.12;43.10;98399.47;5110023;28;19932;-60
2022/07/19 00:36:49;;;;;;;;;;;;;;;28.14;42.90;98406.16;5109685;28;19950;-60
2022/07/19 00:39:15;;;;;;;;;;;;;;;28.00;43.11;98413.34;5100306;28;19924;-60
2022/07/19 00:41:42;;;;;;;;;;;;;;;27.91;43.30;98404.56;5119270;28;19924;-60
2022/07/19 00:44:08;;;;;;;;;;;;;;;27.88;43.76;98403.34;5121678;28;19950;-60
2022/07/19 00:46:34;;;;;;;;;;;;;;;27.87;43.80;98399.00;5121598;28;19924;-59
2022/07/19 00:49:02;;;;;;;;;;;;;;;27.88;43.57;98400.59;5118225;28;19928;-60
2022/07/19 00:51:29;;;;;;;;;;;;;;;27.85;43.92;98401.31;5118156;28;19924;-59
2022/07/19 00:53:56;;;;;;;;;;;;;;;27.80;43.71;98404.34;5120755;28;19946;-60
2022/07/19 00:56:23;;;;;;;;;;;;;;;27.74;44.08;98401.09;5121671;28;19919;-60
2022/07/19 00:58:50;;;;;;;;;;;;;;;27.67;44.33;98411.13;5119576;28;19924;-60
2022/07/19 01:01:17;;;;;;;;;;;;;;;27.67;44.12;98392.72;5118398;28;19971;-60
2022/07/19 01:03:44;;;;;;;;;;;;;;;27.64;44.14;98401.69;5119235;28;19924;-59
2022/07/19 01:06:11;;;;;;;;;;;;;;;27.65;44.21;98406.03;5121499;28;19924;-60
2022/07/19 01:08:38;;;;;;;;;;;;;;;27.64;44.15;98409.13;5121217;28;19932;-60
2022/07/19 01:11:05;;;;;;;;;;;;;;;27.57;44.32;98401.56;5118080;28;19924;-60
2022/07/19 01:13:32;;;;;;;;;;;;;;;27.58;44.69;98403.16;5117976;28;19928;-59
2022/07/19 01:15:59;;;;;;;;;;;;;;;27.66;44.51;98390.38;5120926;28;19967;-59
2022/07/19 01:18:25;;;;;;;;;;;;;;;27.71;44.26;98398.28;5122666;28;19924;-59
2022/07/19 01:20:52;;;;;;;;;;;;;;;27.73;44.23;98404.22;5123158;28;20541;-60
2022/07/19 01:23:19;;;;;;;;;;;;;;;27.81;44.33;98403.19;5121933;28;20399;-60
2022/07/19 01:25:46;;;;;;;;;;;;;;;27.77;44.49;98403.13;5123083;28;19928;-60
2022/07/19 01:28:12;;;;;;;;;;;;;;;27.49;44.64;98405.31;5125185;28;19931;-60
2022/07/19 01:30:39;;;;;;;;;;;;;;;27.44;44.91;98397.38;5124881;28;19967;-59
2022/07/19 01:33:05;;;;;;;;;;;;;;;27.59;44.78;98399.25;5121869;28;19924;-60
2022/07/19 01:35:32;;;;;;;;;;;;;;;27.52;44.81;98398.31;5121856;28;19939;-60
2022/07/19 01:37:58;;;;;;;;;;;;;;;27.53;44.77;98400.69;5124755;28;19951;-60
2022/07/19 01:40:26;;;;;;;;;;;;;;;27.54;45.03;98407.78;5125231;28;19943;-60
2022/07/19 01:42:52;;;;;;;;;;;;;;;27.52;45.12;98410.09;5122961;27;19934;-59
2022/07/19 01:45:19;;;;;;;;;;;;;;;27.55;44.82;98409.34;5121391;28;19935;-60
2022/07/19 01:47:46;;;;;;;;;;;;;;;27.56;44.84;98410.16;5122619;28;19999;-60
2022/07/19 01:50:13;;;;;;;;;;;;;;;27.53;45.19;98411.69;5124939;28;19982;-60
2022/07/19 01:52:40;;;;;;;;;;;;;;;27.52;45.07;98410.09;5124266;28;19982;-60
2022/07/19 01:55:07;;;;;;;;;;;;;;;27.52;45.18;98412.03;5121308;28;20025;-60
2022/07/19 01:57:34;;;;;;;;;;;;;;;27.31;45.68;98421.41;5121222;28;19951;-61
2022/07/19 02:00:01;;;;;;;;;;;;;;;27.20;46.01;98406.66;5124759;28;19955;-60
2022/07/19 02:02:27;;;;;;;;;;;;;;;27.27;45.83;98414.22;5124565;28;19987;-59
2022/07/19 02:04:53;;;;;;;;;;;;;;;27.27;46.02;98409.56;5122055;28;20360;-61
2022/07/19 02:07:20;;;;;;;;;;;;;;;27.21;45.86;98401.97;5121055;28;19924;-60
2022/07/19 02:09:46;;;;;;;;;;;;;;;27.13;46.04;98403.78;5122536;28;19935;-60
2022/07/19 02:12:13;;;;;;;;;;;;;;;27.09;46.37;98405.66;5124849;28;19993;-60
2022/07/19 02:14:40;;;;;;;;;;;;;;;27.14;46.22;98412.81;5124130;28;19988;-59
2022/07/19 02:17:07;;;;;;;;;;;;;;;27.11;46.35;98405.28;5121354;28;19924;-61
2022/07/19 02:19:33;;;;;;;;;;;;;;;27.13;46.49;98403.78;5120831;28;19931;-59
2022/07/19 02:21:59;;;;;;;;;;;;;;;27.12;46.59;98406.88;5124392;28;19928;-61
2022/07/19 02:24:26;;;;;;;;;;;;;;;27.17;46.29;98412.84;5124585;28;19935;-60
2022/07/19 02:26:52;;;;;;;;;;;;;;;27.25;46.06;98405.59;5122114;28;19927;-59
2022/07/19 02:29:18;;;;;;;;;;;;;;;27.19;46.22;98405.09;5120552;28;19924;-59
2022/07/19 02:31:46;;;;;;;;;;;;;;;27.10;46.69;98406.44;5121836;28;19924;-59
2022/07/19 02:34:12;;;;;;;;;;;;;;;27.02;46.69;98408.22;5124411;28;19924;-59
2022/07/19 02:36:39;;;;;;;;;;;;;;;27.08;46.61;98404.03;5123712;28;20011;-60
2022/07/19 02:39:05;;;;;;;;;;;;;;;27.12;46.57;98406.88;5120648;28;20060;-60
2022/07/19 02:41:32;;;;;;;;;;;;;;;27.14;46.61;98407.31;5120625;28;19928;-59
2022/07/19 02:43:58;;;;;;;;;;;;;;;26.96;47.01;98409.66;5123888;28;19923;-60
2022/07/19 02:46:24;;;;;;;;;;;;;;;26.93;47.16;98404.09;5123820;28;19924;-59
2022/07/19 02:48:52;;;;;;;;;;;;;;;26.90;47.30;98408.34;5121807;28;19975;-59
2022/07/19 02:51:19;;;;;;;;;;;;;;;26.86;47.53;98412.97;5120305;28;19924;-60
2022/07/19 02:53:45;;;;;;;;;;;;;;;26.83;47.51;98410.94;5121493;28;19971;-60
2022/07/19 02:56:11;;;;;;;;;;;;;;;26.78;47.74;98408.44;5123995;28;20540;-58
2022/07/19 02:58:38;;;;;;;;;;;;;;;26.75;47.86;98409.16;5123289;28;19924;-59
2022/07/19 03:01:04;;;;;;;;;;;;;;;26.75;48.15;98415.44;5120366;28;19924;-59
2022/07/19 03:03:46;;;;;;;;;;;;;;;26.74;48.20;98408.34;5120229;28;19963;-59
2022/07/19 03:06:15;;;;;;;;;;;;;;;26.80;47.98;98408.94;5120120;28;19939;-59
2022/07/19 03:08:41;;;;;;;;;;;;;;;26.86;48.08;98410.25;5120482;28;19987;-59
2022/07/19 03:11:08;;;;;;;;;;;;;;;26.67;48.17;98413.69;5123610;28;19963;-59
2022/07/19 03:13:34;;;;;;;;;;;;;;;26.54;48.69;98408.66;5123835;28;19924;-61
2022/07/19 03:16:01;;;;;;;;;;;;;;;26.42;49.29;98408.78;5123485;28;19939;-62
2022/07/19 03:18:27;;;;;;;;;;;;;;;26.10;49.81;98421.63;5123435;28;19955;-60
2022/07/19 03:20:54;;;;;;;;;;;;;;;25.61;51.26;98419.16;5121041;28;20034;-59
2022/07/19 03:23:22;;;;;;;;;;;;;;;25.76;50.91;98421.13;5119899;28;19934;-59
2022/07/19 03:25:48;;;;;;;;;;;;;;;25.99;50.65;98412.34;5121618;28;19970;-60
2022/07/19 03:28:15;;;;;;;;;;;;;;;26.10;50.65;98421.63;5123112;28;19931;-59
2022/07/19 03:30:41;;;;;;;;;;;;;;;25.98;50.73;98419.75;5104348;28;19931;-61
2022/07/19 03:33:07;;;;;;;;;;;;;;;26.11;50.59;98420.47;5119715;28;19927;-59
2022/07/19 03:35:34;;;;;;;;;;;;;;;26.24;50.36;98422.03;5119614;28;19935;-59
2022/07/19 03:38:00;;;;;;;;;;;;;;;26.40;50.28;98420.06;5122963;28;19939;-59
2022/07/19 03:40:28;;;;;;;;;;;;;;;26.44;50.11;98420.94;5122429;28;19950;-59
2022/07/19 03:42:54;;;;;;;;;;;;;;;26.29;50.17;98429.97;5120596;28;19952;-60
2022/07/19 03:45:20;;;;;;;;;;;;;;;25.90;50.66;98428.94;5119498;28;20163;-59
2022/07/19 03:47:47;;;;;;;;;;;;;;;25.28;51.88;98431.47;5120627;28;19985;-59
2022/07/19 03:50:13;;;;;;;;;;;;;;;25.73;51.64;98421.84;5122834;28;19924;-60
2022/07/19 03:52:40;;;;;;;;;;;;;;;25.79;51.12;98433.31;5122143;28;19924;-60
2022/07/19 03:55:06;;;;;;;;;;;;;;;26.15;50.33;98435.06;5119253;28;19974;-60
2022/07/19 03:57:34;;;;;;;;;;;;;;;26.35;50.05;98435.97;5119126;28;19955;-59
2022/07/19 04:00:00;;;;;;;;;;;;;;;26.23;49.80;98436.84;5122366;28;19928;-59
2022/07/19 04:02:27;;;;;;;;;;;;;;;26.21;50.13;98430.94;5122563;28;19926;-60
2022/07/19 04:04:53;;;;;;;;;;;;;;;26.19;50.06;98431.28;5120143;28;20402;-60
2022/07/19 04:07:20;;;;;;;;;;;;;;;26.31;50.18;98433.13;5118761;28;19924;-59
2022/07/19 04:09:46;;;;;;;;;;;;;;;26.33;50.15;98436.34;5119922;28;19966;-59
2022/07/19 04:12:12;;;;;;;;;;;;;;;26.35;50.38;98438.72;5122586;27;19959;-60
2022/07/19 04:14:40;;;;;;;;;;;;;;;26.33;50.21;98439.06;5121811;28;19924;-59
2022/07/19 04:17:08;;;;;;;;;;;;;;;26.31;50.37;98441.34;5118754;28;20396;-60
2022/07/19 04:19:35;;;;;;;;;;;;;;;26.29;50.35;98438.97;5118730;28;19967;-60
2022/07/19 04:22:01;;;;;;;;;;;;;;;26.16;50.21;98436.66;5121996;28;19970;-59
2022/07/19 04:24:27;;;;;;;;;;;;;;;26.02;50.59;98445.28;5122233;28;19934;-60
2022/07/19 04:26:54;;;;;;;;;;;;;;;25.60;51.03;98438.66;5119750;28;19988;-59
2022/07/19 04:29:20;;;;;;;;;;;;;;;25.52;51.40;98440.41;5118555;28;19924;-60
2022/07/19 04:31:48;;;;;;;;;;;;;;;25.58;51.39;98449.16;5119673;28;20007;-60
2022/07/19 04:34:14;;;;;;;;;;;;;;;25.66;51.16;98445.47;5121945;28;19951;-59
2022/07/19 04:36:41;;;;;;;;;;;;;;;25.88;50.81;98446.84;5121140;28;19999;-60
2022/07/19 04:39:07;;;;;;;;;;;;;;;25.71;50.95;98446.03;5118553;28;19935;-61
2022/07/19 04:41:33;;;;;;;;;;;;;;;25.60;50.76;98444.91;5118422;28;19956;-61
2022/07/19 04:43:59;;;;;;;;;;;;;;;25.45;51.33;98451.09;5121993;27;19990;-60
2022/07/19 04:46:26;;;;;;;;;;;;;;;25.05;52.23;98444.81;5121849;28;19995;-59
2022/07/19 04:48:54;;;;;;;;;;;;;;;25.31;52.03;98441.69;5119453;28;19967;-60
2022/07/19 04:51:20;;;;;;;;;;;;;;;25.37;51.97;98443.84;5100321;28;20034;-59
2022/07/19 04:53:47;;;;;;;;;;;;;;;24.68;53.12;98439.38;5119335;28;19997;-60
2022/07/19 04:56:13;;;;;;;;;;;;;;;25.21;52.28;98445.72;5121889;28;19927;-59
2022/07/19 04:58:39;;;;;;;;;;;;;;;25.59;51.49;98454.25;5121245;28;19923;-61
2022/07/19 05:01:06;;;;;;;;;;;;;;;25.78;51.23;98448.94;5118217;28;20423;-60
2022/07/19 05:03:32;;;;;;;;;;;;;;;25.93;50.84;98454.81;5118053;28;19971;-59
2022/07/19 05:06:00;;;;;;;;;;;;;;;26.02;50.57;98448.03;5121131;28;19931;-59
2022/07/19 05:08:26;;;;;;;;;;;;;;;26.03;50.45;98449.59;5121417;28;19959;-60
2022/07/19 05:10:53;;;;;;;;;;;;;;;26.05;50.65;98458.28;5119210;28;19923;-60
2022/07/19 05:13:19;;;;;;;;;;;;;;;26.08;50.27;98462.25;5118407;28;19943;-59
2022/07/19 05:15:45;;;;;;;;;;;;;;;26.13;50.33;98448.28;5118910;28;19967;-60
2022/07/19 05:18:12;;;;;;;;;;;;;;;26.03;50.44;98446.06;5121454;28;19920;-60
2022/07/19 05:20:38;;;;;;;;;;;;;;;25.94;50.57;98443.50;5121162;28;19931;-59
2022/07/19 05:23:07;;;;;;;;;;;;;;;25.98;50.72;98440.84;5118121;28;19925;-60
2022/07/19 05:25:33;;;;;;;;;;;;;;;26.06;50.42;98440.69;5117869;28;20034;-60
2022/07/19 05:28:00;;;;;;;;;;;;;;;25.99;50.31;98436.97;5102941;28;19969;-59
2022/07/19 05:30:26;;;;;;;;;;;;;;;25.33;51.51;98433.94;5121389;28;20162;-61
2022/07/19 05:32:53;;;;;;;;;;;;;;;25.07;51.99;98439.81;5119188;28;19924;-60
2022/07/19 05:35:19;;;;;;;;;;;;;;;24.65;52.88;98434.59;5118036;28;19947;-60
2022/07/19 05:37:45;;;;;;;;;;;;;;;25.24;51.76;98428.63;5118918;28;19924;-60
2022/07/19 05:40:13;;;;;;;;;;;;;;;24.96;52.06;98434.03;5121360;28;19947;-60
2022/07/19 05:42:40;;;;;;;;;;;;;;;25.43;51.40;98431.53;5121057;28;20236;-59
2022/07/19 05:45:07;;;;;;;;;;;;;;;25.88;50.50;98424.94;5117555;28;20011;-60
2022/07/19 05:47:33;;;;;;;;;;;;;;;26.14;49.88;98417.03;5117687;28;19928;-60
2022/07/19 05:49:59;;;;;;;;;;;;;;;26.40;49.55;98424.78;5121023;28;19924;-60
2022/07/19 05:52:26;;;;;;;;;;;;;;;26.57;49.37;98419.72;5121227;28;19927;-59
2022/07/19 05:54:52;;;;;;;;;;;;;;;26.69;49.27;98416.06;5118886;28;19920;-59
2022/07/19 05:57:20;;;;;;;;;;;;;;;26.89;48.76;98433.38;5117757;28;19924;-60
2022/07/19 05:59:46;;;;;;;;;;;;;;;26.94;48.83;98422.94;5118860;28;19928;-60
2022/07/19 06:02:13;;;;;;;;;;;;;;;27.16;48.26;98425.00;5121141;28;19935;-59
2022/07/19 06:04:39;;;;;;;;;;;;;;;27.40;47.98;98428.59;5122276;28;19923;-60
2022/07/19 06:07:05;;;;;;;;;;;;;;;27.44;48.00;98432.25;5121435;28;19970;-60
2022/07/19 06:09:32;;;;;;;;;;;;;;;27.35;48.30;98430.50;5121424;28;19954;-60
2022/07/19 06:11:58;;;;;;;;;;;;;;;27.28;48.20;98427.59;5124872;27;20327;-61
2022/07/19 06:14:26;;;;;;;;;;;;;;;27.41;48.26;98428.25;5124768;28;19928;-60
2022/07/19 06:16:53;;;;;;;;;;;;;;;27.56;48.08;98430.16;5122443;28;19973;-60
2022/07/19 06:19:20;;;;;;;;;;;;;;;27.81;47.78;98431.44;5121034;28;19979;-60
2022/07/19 06:21:46;;;;;;;;;;;;;;;27.84;47.60;98422.47;5122428;28;19924;-59
2022/07/19 06:24:12;;;;;;;;;;;;;;;27.79;47.48;98425.50;5124773;28;19920;-60
2022/07/19 06:26:39;;;;;;;;;;;;;;;27.88;47.84;98428.81;5124095;28;19931;-59
2022/07/19 06:29:06;;;;;;;;;;;;;;;27.96;47.37;98424.25;5120980;28;19969;-59
2022/07/19 06:31:34;;;;;;;;;;;;;;;27.41;47.62;98420.03;5120790;28;19952;-59
2022/07/19 06:34:00;;;;;;;;;;;;;;;27.46;48.38;98425.25;5124113;28;19963;-61
2022/07/19 06:36:26;;;;;;;;;;;;;;;27.52;48.47;98414.78;5124283;28;19919;-60
2022/07/19 06:38:53;;;;;;;;;;;;;;;27.82;47.99;98424.78;5121728;28;19920;-60
2022/07/19 06:41:19;;;;;;;;;;;;;;;27.88;48.08;98423.31;5120559;28;19928;-59
2022/07/19 06:43:46;;;;;;;;;;;;;;;27.40;48.51;98426.66;5122038;27;19923;-60
2022/07/19 06:46:12;;;;;;;;;;;;;;;27.15;48.62;98422.59;5124122;28;19930;-60
2022/07/19 06:48:40;;;;;;;;;;;;;;;27.43;48.93;98415.00;5123618;28;19924;-60
2022/07/19 06:51:07;;;;;;;;;;;;;;;27.40;49.16;98420.38;5120589;28;19958;-59
2022/07/19 06:53:33;;;;;;;;;;;;;;;27.50;48.85;98417.09;5120109;28;19966;-59
2022/07/19 06:56:00;;;;;;;;;;;;;;;27.85;48.35;98412.28;5123631;28;19924;-61
2022/07/19 06:58:27;;;;;;;;;;;;;;;27.74;48.13;98423.06;5123933;28;19966;-60
2022/07/19 07:00:53;;;;;;;;;;;;;;;27.57;48.67;98417.25;5121443;28;19927;-61
2022/07/19 07:03:19;;;;;;;;;;;;;;;27.86;48.03;98422.91;5120312;28;20011;-60
2022/07/19 07:05:47;;;;;;;;;;;;;;;27.83;47.86;98420.88;5121179;28;19934;-60
2022/07/19 07:08:13;;;;;;;;;;;;;;;28.40;47.30;98421.91;5123590;28;19920;-61
2022/07/19 07:10:40;;;;;;;;;;;;;;;27.76;47.48;98418.00;5123026;28;19924;-60
2022/07/19 07:13:06;;;;;;;;;;;;;;;27.75;47.60;98419.16;5120475;28;19959;-60
2022/07/19 07:15:33;;;;;;;;;;;;;;;28.30;47.18;98412.34;5118776;28;19935;-59
2022/07/19 07:17:59;;;;;;;;;;;;;;;28.29;46.75;98409.94;5122906;28;19924;-60
2022/07/19 07:20:26;;;;;;;;;;;;;;;28.36;46.71;98421.06;5123485;28;19931;-61
2022/07/19 07:22:53;;;;;;;;;;;;;;;28.22;46.60;98420.81;5121143;28;19998;-60
2022/07/19 07:25:20;;;;;;;;;;;;;;;27.89;46.94;98421.38;5119843;28;19951;-61
2022/07/19 07:27:46;;;;;;;;;;;;;;;27.78;46.21;98414.91;5121002;28;19962;-59
2022/07/19 07:30:13;;;;;;;;;;;;;;;27.35;47.28;98411.31;5105147;28;19924;-59
2022/07/19 07:32:39;;;;;;;;;;;;;;;27.35;46.91;98410.50;5122900;28;19955;-59
2022/07/19 07:35:06;;;;;;;;;;;;;;;27.48;47.02;98411.94;5119639;28;19955;-59
2022/07/19 07:37:32;;;;;;;;;;;;;;;27.55;46.61;98403.88;5119565;28;19928;-61
2022/07/19 07:40:00;;;;;;;;;;;;;;;27.66;46.14;98398.59;5122521;28;20335;-59
2022/07/19 07:42:26;;;;;;;;;;;;;;;27.41;46.23;98406.31;5123561;28;19924;-59
2022/07/19 07:44:53;;;;;;;;;;;;;;;27.12;46.25;98401.38;5120845;28;19924;-59
2022/07/19 07:47:19;;;;;;;;;;;;;;;27.58;46.70;98400.41;5119514;28;19924;-58
2022/07/19 07:49:45;;;;;;;;;;;;;;;27.46;46.48;98395.06;5120453;28;19970;-60
2022/07/19 07:52:12;;;;;;;;;;;;;;;27.49;45.88;98391.59;5122737;28;19919;-60
2022/07/19 07:54:38;;;;;;;;;;;;;;;27.44;45.73;98397.38;5122368;28;19935;-60
2022/07/19 07:57:06;;;;;;;;;;;;;;;27.28;46.07;98393.88;5119331;28;19934;-61
2022/07/19 07:59:32;;;;;;;;;;;;;;;27.10;46.02;98392.72;5118826;28;19978;-61
2022/07/19 08:01:59;;;;;;;;;;;;;;;27.15;46.22;98389.69;5122019;28;19924;-58
2022/07/19 08:04:25;;;;;;;;;;;;;;;27.17;46.52;98387.41;5122703;28;19928;-61
2022/07/19 08:06:51;;;;;;;;;;;;;;;27.97;45.99;98383.88;5120523;28;19928;-59
2022/07/19 08:09:18;;;;;;;;;;;;;;;28.14;45.90;98386.94;5119248;28;19924;-60
2022/07/19 08:11:44;;;;;;;;;;;;;;;28.12;46.13;98389.28;5120765;28;19924;-58
2022/07/19 08:14:12;;;;;;;;;;;;;;;28.45;45.70;98383.13;5122687;28;19924;-60
2022/07/19 08:16:38;;;;;;;;;;;;;;;28.46;45.67;98386.66;5122467;28;19924;-60
2022/07/19 08:19:05;;;;;;;;;;;;;;;28.64;44.99;98383.03;5118940;28;19975;-60
2022/07/19 08:21:31;;;;;;;;;;;;;;;28.30;45.19;98382.13;5118894;28;19924;-60
2022/07/19 08:23:57;;;;;;;;;;;;;;;28.49;45.90;98378.50;5121744;28;19966;-60
2022/07/19 08:26:24;;;;;;;;;;;;;;;28.41;45.65;98372.06;5122271;28;19951;-60
2022/07/19 08:28:50;;;;;;;;;;;;;;;28.30;45.07;98375.81;5120151;28;19931;-60
2022/07/19 08:31:18;;;;;;;;;;;;;;;28.48;45.53;98365.91;5118873;28;20579;-60
2022/07/19 08:33:44;;;;;;;;;;;;;;;28.98;45.03;98366.63;5119585;28;19926;-60
2022/07/19 08:36:11;;;;;;;;;;;;;;;28.96;44.21;98371.72;5122391;28;20579;-60
2022/07/19 08:38:38;;;;;;;;;;;;;;;28.62;43.94;98368.88;5122267;28;19955;-60
2022/07/19 08:41:05;;;;;;;;;;;;;;;28.44;44.67;98361.53;5118765;28;19924;-60
2022/07/19 08:43:31;;;;;;;;;;;;;;;28.39;44.67;98365.38;5119096;28;19992;-60
2022/07/19 08:45:59;;;;;;;;;;;;;;;28.09;44.66;98367.25;5121303;28;20557;-60
2022/07/19 08:48:27;;;;;;;;;;;;;;;28.07;45.01;98364.06;5122181;28;20662;-60
2022/07/19 08:50:54;;;;;;;;;;;;;;;28.50;44.81;98365.53;5119501;28;19951;-59
2022/07/19 08:53:21;;;;;;;;;;;;;;;28.29;45.25;98355.00;5118543;28;19924;-60
2022/07/19 08:55:49;;;;;;;;;;;;;;;28.93;44.77;98354.81;5119703;28;19986;-60
2022/07/19 08:58:14;;;;;;;;;;;;;;;28.70;44.46;98361.53;5121861;28;19991;-60
2022/07/19 09:00:41;;;;;;;;;;;;;;;28.47;44.71;98364.34;5120998;28;19924;-60
2022/07/19 09:03:08;;;;;;;;;;;;;;;28.46;45.22;98360.00;5118266;28;19925;-60
2022/07/19 09:05:36;;;;;;;;;;;;;;;29.45;44.57;98366.88;5117949;28;19962;-60
2022/07/19 09:08:04;;;;;;;;;;;;;;;29.18;44.02;98363.38;5118107;28;19931;-60
2022/07/19 09:10:32;;;;;;;;;;;;;;;28.92;44.35;98360.69;5099994;28;19955;-59
2022/07/19 09:12:59;;;;;;;;;;;;;;;28.72;44.05;98354.50;5108588;28;19928;-59
2022/07/19 09:15:36;;;;;;;;;;;;;;;28.96;44.07;98355.22;5118284;28;19924;-60
2022/07/19 09:18:06;;;;;;;;;;;;;;;29.01;43.99;98357.63;5109606;28;19928;-60
2022/07/19 09:20:32;;;;;;;;;;;;;;;28.87;43.63;98348.03;5109498;28;19927;-59
2022/07/19 09:23:01;;;;;;;;;;;;;;;28.90;44.02;98349.28;5109493;28;20351;-60
2022/07/19 09:25:33;;;;;;;;;;;;;;;29.33;43.70;98348.66;5109488;28;19995;-60
2022/07/19 09:27:59;;;;;;;;;;;;;;;29.68;43.37;98353.72;5109595;28;19924;-60
2022/07/19 09:30:32;;;;;;;;;;;;;;;29.61;43.13;98344.63;5109762;28;19939;-60
2022/07/19 09:33:05;;;;;;;;;;;;;;;29.61;42.94;98341.88;5109497;28;19935;-60
2022/07/19 09:35:35;;;;;;;;;;;;;;;29.51;43.40;98345.31;5109508;28;19924;-60
2022/07/19 09:38:16;;;;;;;;;;;;;;;29.47;42.91;98350.75;5109319;28;20171;-61
2022/07/19 09:40:42;;;;;;;;;;;;;;;29.47;41.13;98353.50;5112424;28;19928;-60
2022/07/19 09:43:08;;;;;;;;;;;;;;;29.63;41.49;98356.03;5122443;27;19995;-60
2022/07/19 09:45:35;;;;;;;;;;;;;;;29.70;40.97;98345.09;5121725;28;20011;-59
2022/07/19 09:48:03;;;;;;;;;;;;;;;29.68;41.14;98348.22;5125086;28;19928;-60
2022/07/19 09:50:30;;;;;;;;;;;;;;;29.76;40.44;98336.13;5125397;28;19987;-61
2022/07/19 09:52:58;;;;;;;;;;;;;;;29.89;40.71;98336.69;5122315;28;19927;-60
2022/07/19 09:55:26;;;;;;;;;;;;;;;29.91;41.15;98340.63;5121664;28;19980;-59
2022/07/19 09:57:53;;;;;;;;;;;;;;;30.02;40.18;98332.44;5123541;28;20292;-61
2022/07/19 10:00:20;;;;;;;;;;;;;;;30.38;40.09;98328.00;5125044;28;19951;-60
2022/07/19 10:02:49;;;;;;;;;;;;;;;30.14;39.33;98336.88;5123741;28;19946;-59
2022/07/19 10:05:15;;;;;;;;;;;;;;;30.10;40.28;98328.59;5121648;28;19956;-59
2022/07/19 10:07:41;;;;;;;;;;;;;;;30.10;39.19;98336.84;5121966;28;19931;-60
2022/07/19 10:10:10;;;;;;;;;;;;;;;30.09;39.21;98329.75;5125131;28;19930;-60
2022/07/19 10:12:38;;;;;;;;;;;;;;;30.22;39.10;98327.50;5125526;27;19920;-59
2022/07/19 10:15:05;;;;;;;;;;;;;;;30.32;38.79;98318.53;5121363;28;20001;-60
2022/07/19 10:17:34;;;;;;;;;;;;;;;30.42;38.76;98317.84;5121263;28;19924;-61
2022/07/19 10:20:02;;;;;;;;;;;;;;;30.46;38.56;98321.38;5124480;28;19939;-60
2022/07/19 10:22:29;;;;;;;;;;;;;;;30.45;39.24;98317.06;5125043;28;19945;-60
2022/07/19 10:24:56;;;;;;;;;;;;;;;30.37;38.88;98312.63;5122200;28;19966;-60
2022/07/19 10:27:37;;;;;;;;;;;;;;;30.55;39.17;98310.81;5121132;28;19924;-60
2022/07/19 10:30:23;;;;;;;;;;;;;;;30.73;38.74;98319.19;5112720;28;19924;-60
2022/07/19 10:32:50;;;;;;;;;;;;;;;30.53;37.57;98310.41;5094184;28;19924;-61
2022/07/19 10:35:17;;;;;;;;;;;;;;;30.53;37.46;98296.63;5112598;28;19924;-61
2022/07/19 10:37:45;;;;;;;;;;;;;;;30.74;37.80;98301.47;5112264;28;19991;-59
2022/07/19 10:40:11;;;;;;;;;;;;;;;30.77;37.97;98304.25;5112360;28;19951;-60
2022/07/19 10:42:58;;;;;;;;;;;;;;;30.97;37.34;98297.28;5121318;27;19935;-60
2022/07/19 10:45:25;;;;;;;;;;;;;;;30.93;37.14;98301.97;5120929;28;19928;-59
2022/07/19 10:47:59;;;;;;;;;;;;;;;30.85;36.72;98302.31;5122665;28;19979;-60
2022/07/19 10:50:42;;;;;;;;;;;;;;;30.91;35.52;98295.25;5124122;28;19958;-60
2022/07/19 10:53:08;;;;;;;;;;;;;;;30.99;36.20;98292.16;5120726;28;20474;-60
2022/07/19 10:55:36;;;;;;;;;;;;;;;31.02;36.49;98290.59;5120527;28;19931;-59
2022/07/19 10:58:10;;;;;;;;;;;;;;;31.14;36.65;98289.44;5120680;28;19924;-60
2022/07/19 11:00:45;;;;;;;;;;;;;;;31.30;36.46;98287.13;5120161;28;19993;-60
2022/07/19 11:03:30;;;;;;;;;;;;;;;31.27;36.59;98272.16;5120409;28;19981;-60
2022/07/19 11:05:57;;;;;;;;;;;;;;;31.37;36.61;98285.19;5123052;28;19950;-61
2022/07/19 11:08:33;;;;;;;;;;;;;;;31.26;36.23;98280.84;5124076;28;19946;-59
2022/07/19 11:11:06;;;;;;;;;;;;;;;31.24;36.65;98272.94;5120843;28;19924;-60
2022/07/19 11:13:32;;;;;;;;;;;;;;;31.14;36.57;98275.66;5120810;27;19987;-60
2022/07/19 11:16:00;;;;;;;;;;;;;;;31.24;36.21;98272.94;5123094;28;20427;-61
2022/07/19 11:18:27;;;;;;;;;;;;;;;31.40;35.26;98264.28;5105674;28;20046;-58
2022/07/19 11:20:57;;;;;;;;;;;;;;;31.27;35.42;98260.31;5121362;28;19970;-61
2022/07/19 11:23:23;;;;;;;;;;;;;;;31.30;35.77;98265.84;5120052;28;20400;-60
2022/07/19 11:25:51;;;;;;;;;;;;;;;31.33;36.08;98261.50;5121550;28;19943;-60
2022/07/19 11:28:20;;;;;;;;;;;;;;;31.43;35.87;98266.25;5123703;28;19942;-59
2022/07/19 11:30:47;;;;;;;;;;;;;;;31.59;35.73;98252.13;5121855;28;20502;-60
2022/07/19 11:33:16;;;;;;;;;;;;;;;31.51;35.65;98248.53;5119646;28;19931;-60
2022/07/19 11:35:52;;;;;;;;;;;;;;;31.64;35.78;98243.44;5120212;28;19920;-60
2022/07/19 11:38:19;;;;;;;;;;;;;;;31.63;36.28;98239.88;5123214;28;19931;-60
2022/07/19 11:40:45;;;;;;;;;;;;;;;31.63;36.02;98250.91;5121772;28;19966;-60
2022/07/19 11:43:11;;;;;;;;;;;;;;;31.82;35.72;98250.53;5120240;27;19931;-60
2022/07/19 11:45:42;;;;;;;;;;;;;;;31.87;35.89;98241.88;5119297;28;19928;-60
2022/07/19 11:48:08;;;;;;;;;;;;;;;31.88;35.63;98246.19;5122966;28;19966;-61
2022/07/19 11:50:36;;;;;;;;;;;;;;;31.85;35.65;98238.69;5122959;28;19931;-61
2022/07/19 11:53:03;;;;;;;;;;;;;;;31.83;35.25;98235.56;5119462;28;19920;-61
2022/07/19 11:55:31;;;;;;;;;;;;;;;31.89;35.10;98233.19;5119411;28;19927;-60
2022/07/19 11:57:57;;;;;;;;;;;;;;;31.97;34.89;98229.25;5103627;28;19928;-60
2022/07/19 12:00:24;;;;;;;;;;;;;;;32.02;35.08;98231.59;5122755;28;20009;-60
2022/07/19 12:02:56;;;;;;;;;;;;;;;31.89;35.01;98231.22;5119987;28;19938;-60
2022/07/19 12:05:22;;;;;;;;;;;;;;;32.17;34.41;98224.09;5119359;28;19924;-61
2022/07/19 12:07:51;;;;;;;;;;;;;;;32.13;34.37;98223.28;5120233;28;19932;-60
2022/07/19 12:10:34;;;;;;;;;;;;;;;31.98;35.05;98228.03;5122455;28;19924;-59
2022/07/19 12:13:00;;;;;;;;;;;;;;;32.31;34.26;98224.06;5120068;28;19935;-60
2022/07/19 12:15:26;;;;;;;;;;;;;;;32.50;33.57;98226.38;5118922;28;19920;-60
2022/07/19 12:17:56;;;;;;;;;;;;;;;32.29;33.17;98229.97;5120677;28;19958;-61
2022/07/19 12:20:23;;;;;;;;;;;;;;;32.11;33.78;98214.63;5122227;28;19924;-61
2022/07/19 12:22:51;;;;;;;;;;;;;;;32.08;34.16;98225.28;5120577;28;19928;-60
2022/07/19 12:25:35;;;;;;;;;;;;;;;31.99;33.99;98224.88;5118672;28;19931;-59
2022/07/19 12:28:02;;;;;;;;;;;;;;;32.35;34.04;98208.25;5121861;28;19959;-60
2022/07/19 12:30:29;;;;;;;;;;;;;;;32.39;33.87;98214.56;5122125;28;19928;-60
2022/07/19 12:33:05;;;;;;;;;;;;;;;32.43;33.36;98196.78;5119653;28;19923;-60
2022/07/19 12:35:41;;;;;;;;;;;;;;;32.40;33.20;98207.84;5118404;28;19936;-61
2022/07/19 12:38:11;;;;;;;;;;;;;;;32.51;33.11;98203.06;5118575;28;19924;-59
2022/07/19 12:40:38;;;;;;;;;;;;;;;32.54;33.54;98211.34;5118472;28;19928;-61
2022/07/19 12:43:04;;;;;;;;;;;;;;;32.42;33.26;98197.16;5119362;28;19987;-60
2022/07/19 12:45:33;;;;;;;;;;;;;;;32.29;33.42;98193.25;5118334;28;19932;-60
2022/07/19 12:48:00;;;;;;;;;;;;;;;32.37;33.70;98194.84;5121232;28;19935;-60